Terminal Aerodrome Forecast
Issued by NWS Bismarck, ND

Home | Current Version | Previous Version | Text Only | Print | Product List | Glossary Off
Versions: 1 2 3 4 5 6 7 8 9 10 11 12 13 14 15 16 17

852
FTUS43 KBIS 221723
TAFBIS
TAF
KBIS 221723Z 2218/2318 30021G29KT P6SM FEW080 FEW110
     FM230000 30027G38KT P6SM FEW090 FEW250
     FM230300 31020G29KT P6SM BKN070
     FM230600 31016G23KT P6SM BKN030 BKN045
     FM231100 31013KT P6SM FEW030 SCT045
     FM231500 31017G26KT P6SM FEW040 SCT250=

USA.gov is the U.S. government's official web portal to all federal, state and local government web resources and services.